createdAt,value
2022-11-29T00:00:21.598Z,91.93
2022-11-29T00:02:47.814Z,91.85
2022-11-29T00:05:13.981Z,91.86
2022-11-29T00:07:40.122Z,91.95
2022-11-29T00:10:06.252Z,92.09
2022-11-29T00:12:32.380Z,91.91
2022-11-29T00:14:58.481Z,91.93
2022-11-29T00:17:24.567Z,92.18
2022-11-29T00:19:50.699Z,91.97
2022-11-29T00:22:16.805Z,92.24
2022-11-29T00:24:43.064Z,92.23
2022-11-29T00:27:09.356Z,92.03
2022-11-29T00:29:35.502Z,92.24
2022-11-29T00:32:01.643Z,92.41
2022-11-29T00:34:27.748Z,92.13
2022-11-29T00:36:53.848Z,92.17
2022-11-29T00:39:19.952Z,92.28
2022-11-29T00:41:46.059Z,92.23
2022-11-29T00:44:18.391Z,92.39
2022-11-29T00:46:46.133Z,92.26
2022-11-29T00:49:12.246Z,92.44
2022-11-29T00:51:38.351Z,92.39
2022-11-29T00:54:04.435Z,92.24
2022-11-29T00:56:30.542Z,92.51
2022-11-29T00:58:56.623Z,92.48
2022-11-29T01:01:22.741Z,92.60
2022-11-29T01:03:48.901Z,92.50
2022-11-29T01:06:14.996Z,92.48
2022-11-29T01:08:41.102Z,92.53
2022-11-29T01:11:07.222Z,92.58
2022-11-29T01:13:33.349Z,92.72
2022-11-29T01:15:59.453Z,92.71
2022-11-29T01:18:25.557Z,92.60
2022-11-29T01:20:51.683Z,92.54
2022-11-29T01:23:17.775Z,92.62
2022-11-29T01:25:43.907Z,92.68
2022-11-29T01:28:10.000Z,92.68
2022-11-29T01:30:36.136Z,92.80
2022-11-29T01:33:02.253Z,92.90
2022-11-29T01:35:28.354Z,92.99
2022-11-29T01:37:54.461Z,92.87
2022-11-29T01:40:20.584Z,92.85
2022-11-29T01:42:46.670Z,93.09
2022-11-29T01:45:12.769Z,92.91
2022-11-29T01:47:38.884Z,93.00
2022-11-29T01:50:04.986Z,93.21
2022-11-29T01:52:31.084Z,93.30
2022-11-29T01:54:57.209Z,93.00
2022-11-29T01:57:23.298Z,93.10
2022-11-29T01:59:49.382Z,93.27
2022-11-29T02:02:15.550Z,93.23
2022-11-29T02:04:41.730Z,93.15
2022-11-29T02:07:07.913Z,93.21
2022-11-29T02:09:34.020Z,93.12
2022-11-29T02:12:00.136Z,93.20
2022-11-29T02:14:26.251Z,93.09
2022-11-29T02:16:56.520Z,93.40
2022-11-29T02:19:22.922Z,93.48
2022-11-29T02:21:49.024Z,93.21
2022-11-29T02:24:15.130Z,93.30
2022-11-29T02:26:41.235Z,93.52
2022-11-29T02:29:07.336Z,93.37
2022-11-29T02:31:33.769Z,93.44
2022-11-29T02:33:59.859Z,93.36
2022-11-29T02:36:25.964Z,93.43
2022-11-29T02:38:52.066Z,93.64
2022-11-29T02:41:18.158Z,93.81
2022-11-29T02:43:44.259Z,93.39
2022-11-29T02:46:10.404Z,93.55
2022-11-29T02:48:36.538Z,93.47
2022-11-29T02:51:02.645Z,93.84
2022-11-29T02:53:28.773Z,93.60
2022-11-29T02:55:54.870Z,93.50
2022-11-29T02:58:20.963Z,93.77
2022-11-29T03:00:47.083Z,93.40
2022-11-29T03:03:13.188Z,93.47
2022-11-29T03:05:39.282Z,93.61
2022-11-29T03:08:05.392Z,93.47
2022-11-29T03:10:31.493Z,93.45
2022-11-29T03:12:57.600Z,93.48
2022-11-29T03:15:23.847Z,93.50
2022-11-29T03:17:50.028Z,93.63
2022-11-29T03:20:16.119Z,93.55
2022-11-29T03:22:42.256Z,93.69
2022-11-29T03:25:08.360Z,93.61
2022-11-29T03:27:34.459Z,93.63
2022-11-29T03:30:00.592Z,93.24
2022-11-29T03:32:26.684Z,93.57
2022-11-29T03:34:56.958Z,93.66
2022-11-29T03:37:24.084Z,93.43
2022-11-29T03:39:50.194Z,93.50
2022-11-29T03:42:16.282Z,93.46
2022-11-29T03:44:42.717Z,93.57
2022-11-29T03:47:08.978Z,93.27
2022-11-29T03:49:35.073Z,93.42
2022-11-29T03:52:01.162Z,93.58
2022-11-29T03:54:27.258Z,93.37
2022-11-29T03:56:53.351Z,93.52
2022-11-29T03:59:19.486Z,93.53
2022-11-29T04:01:45.630Z,93.35
2022-11-29T04:04:11.763Z,93.51
2022-11-29T04:06:37.870Z,93.66
2022-11-29T04:09:03.959Z,93.38
2022-11-29T04:11:30.073Z,93.38
2022-11-29T04:13:56.196Z,93.75
2022-11-29T04:16:22.329Z,93.51
2022-11-29T04:18:48.443Z,93.62
2022-11-29T04:21:15.338Z,93.45
2022-11-29T04:23:41.436Z,93.34
2022-11-29T04:26:07.525Z,93.65
2022-11-29T04:28:33.641Z,93.56
2022-11-29T04:30:59.856Z,93.66
2022-11-29T04:33:25.974Z,93.67
2022-11-29T04:35:52.079Z,93.35
2022-11-29T04:38:18.174Z,93.53
2022-11-29T04:40:44.257Z,93.73
2022-11-29T04:43:10.359Z,93.44
2022-11-29T04:45:36.442Z,93.82
2022-11-29T04:48:02.545Z,93.81
2022-11-29T04:50:28.649Z,93.70
2022-11-29T04:52:54.736Z,93.72
2022-11-29T04:55:27.684Z,93.79
2022-11-29T04:57:56.694Z,93.66
2022-11-29T05:00:22.779Z,93.64
2022-11-29T05:02:48.916Z,93.75
2022-11-29T05:05:15.034Z,93.88
2022-11-29T05:07:41.139Z,93.79
2022-11-29T05:10:07.256Z,93.89
2022-11-29T05:12:33.371Z,93.90
2022-11-29T05:14:59.460Z,94.11
2022-11-29T05:17:25.554Z,93.90
2022-11-29T05:19:51.672Z,94.12
2022-11-29T05:22:17.769Z,93.86
2022-11-29T05:24:44.136Z,94.28
2022-11-29T05:27:10.434Z,94.00
2022-11-29T05:29:36.559Z,94.33
2022-11-29T05:32:02.661Z,93.97
2022-11-29T05:34:34.520Z,94.06
2022-11-29T05:37:00.911Z,94.17
2022-11-29T05:39:26.996Z,94.43
2022-11-29T05:41:53.395Z,94.34
2022-11-29T05:44:19.479Z,94.12
2022-11-29T05:46:45.612Z,94.01
2022-11-29T05:49:11.745Z,94.05
2022-11-29T05:51:37.838Z,94.42
2022-11-29T05:54:03.951Z,93.99
2022-11-29T05:56:30.106Z,94.45
2022-11-29T05:58:56.201Z,94.31
2022-11-29T06:01:22.291Z,94.44
2022-11-29T06:03:48.416Z,94.17
2022-11-29T06:06:14.521Z,94.45
2022-11-29T06:08:40.615Z,94.19
2022-11-29T06:11:06.725Z,94.43
2022-11-29T06:13:32.835Z,94.41
2022-11-29T06:15:58.970Z,94.25
2022-11-29T06:18:25.133Z,94.41
2022-11-29T06:20:51.226Z,94.71
2022-11-29T06:23:17.308Z,94.43
2022-11-29T06:25:43.430Z,94.31
2022-11-29T06:28:09.519Z,94.41
2022-11-29T06:30:35.611Z,94.42
2022-11-29T06:33:01.729Z,94.49
2022-11-29T06:35:27.826Z,94.39
2022-11-29T06:37:53.919Z,94.72
2022-11-29T06:40:20.031Z,94.51
2022-11-29T06:42:46.128Z,94.44
2022-11-29T06:45:12.221Z,94.43
2022-11-29T06:47:38.598Z,94.68
2022-11-29T06:50:04.700Z,94.66
2022-11-29T06:52:30.800Z,94.47
2022-11-29T06:54:56.920Z,94.87
2022-11-29T06:57:23.007Z,94.55
2022-11-29T06:59:49.106Z,94.64
2022-11-29T07:02:15.264Z,94.89
2022-11-29T07:04:45.891Z,94.64
2022-11-29T07:07:12.512Z,94.65
2022-11-29T07:09:38.630Z,94.64
2022-11-29T07:12:04.729Z,94.72
2022-11-29T07:14:30.832Z,94.61
2022-11-29T07:16:57.571Z,94.71
2022-11-29T07:19:23.839Z,94.78
2022-11-29T07:21:49.939Z,94.60
2022-11-29T07:24:16.042Z,94.48
2022-11-29T07:26:42.139Z,94.67
2022-11-29T07:29:08.472Z,94.45
2022-11-29T07:31:34.735Z,94.42
2022-11-29T07:34:00.890Z,94.58
2022-11-29T07:36:26.990Z,94.71
2022-11-29T07:38:53.101Z,94.44
2022-11-29T07:41:19.212Z,94.46
2022-11-29T07:43:45.312Z,94.59
2022-11-29T07:46:11.446Z,94.66
2022-11-29T07:48:37.539Z,94.48
2022-11-29T07:51:03.633Z,94.43
2022-11-29T07:53:29.750Z,94.50
2022-11-29T07:55:55.854Z,94.60
2022-11-29T07:58:21.993Z,94.64
2022-11-29T08:00:48.183Z,94.68
2022-11-29T08:03:14.320Z,94.72
2022-11-29T08:05:40.403Z,94.64
2022-11-29T08:08:06.530Z,94.70
2022-11-29T08:10:32.650Z,94.70
2022-11-29T08:12:58.744Z,94.70
2022-11-29T08:15:24.866Z,94.65
2022-11-29T08:17:50.985Z,94.68
2022-11-29T08:20:17.079Z,94.68
2022-11-29T08:22:43.207Z,94.55
2022-11-29T08:25:09.306Z,94.49
2022-11-29T08:27:35.436Z,94.50
2022-11-29T08:30:02.196Z,94.59
2022-11-29T08:32:28.291Z,94.44
2022-11-29T08:34:54.392Z,94.31
2022-11-29T08:37:20.511Z,94.60
2022-11-29T08:39:46.604Z,94.78
2022-11-29T08:42:12.701Z,94.39
2022-11-29T08:44:38.820Z,94.46
2022-11-29T08:47:04.932Z,94.58
2022-11-29T08:49:31.016Z,94.12
2022-11-29T08:51:57.435Z,94.20
2022-11-29T08:54:23.524Z,94.26
2022-11-29T08:57:37.937Z,94.48
2022-11-29T08:59:35.717Z,94.32
2022-11-29T09:02:01.844Z,94.28
2022-11-29T09:04:28.017Z,94.43
2022-11-29T09:06:54.133Z,94.48
2022-11-29T09:09:20.211Z,94.43
2022-11-29T09:11:49.456Z,94.21
2022-11-29T09:14:15.897Z,94.41
2022-11-29T09:16:42.026Z,94.16
2022-11-29T09:19:08.134Z,94.10
2022-11-29T09:21:34.235Z,94.08
2022-11-29T09:24:00.359Z,93.97
2022-11-29T09:26:26.487Z,93.89
2022-11-29T09:28:52.625Z,94.06
2022-11-29T09:31:18.758Z,93.84
2022-11-29T09:33:44.864Z,93.95
2022-11-29T09:36:11.511Z,94.03
2022-11-29T09:38:37.607Z,93.87
2022-11-29T09:41:03.699Z,93.84
2022-11-29T09:43:29.821Z,93.66
2022-11-29T09:45:55.925Z,93.50
2022-11-29T09:48:22.034Z,93.30
2022-11-29T09:50:48.173Z,93.59
2022-11-29T09:53:14.267Z,93.44
2022-11-29T09:55:40.356Z,93.46
2022-11-29T09:58:06.477Z,93.07
2022-11-29T10:00:32.599Z,93.11
2022-11-29T10:02:58.775Z,92.99
2022-11-29T10:05:24.928Z,93.04
2022-11-29T10:07:51.077Z,92.82
2022-11-29T10:10:17.276Z,92.80
2022-11-29T10:12:43.425Z,92.60
2022-11-29T10:15:09.580Z,92.65
2022-11-29T10:17:35.706Z,92.74
2022-11-29T10:20:01.855Z,92.58
2022-11-29T10:22:27.979Z,92.29
2022-11-29T10:24:54.080Z,92.39
2022-11-29T10:27:20.216Z,91.96
2022-11-29T10:29:46.351Z,92.01
2022-11-29T10:32:12.451Z,91.96
2022-11-29T10:34:38.552Z,91.93
2022-11-29T10:37:04.645Z,91.59
2022-11-29T10:39:30.743Z,91.69
2022-11-29T10:41:56.862Z,91.83
2022-11-29T10:44:22.961Z,91.73
2022-11-29T10:46:49.057Z,91.60
2022-11-29T10:49:15.170Z,91.60
2022-11-29T10:51:41.261Z,91.47
2022-11-29T10:54:07.356Z,91.29
2022-11-29T10:56:33.468Z,91.14
2022-11-29T10:58:59.573Z,91.03
2022-11-29T11:01:25.811Z,91.07
2022-11-29T11:03:53.118Z,90.63
2022-11-29T11:06:19.328Z,90.59
2022-11-29T11:08:45.425Z,90.74
2022-11-29T11:11:11.536Z,90.27
2022-11-29T11:13:37.656Z,90.47
2022-11-29T11:16:03.785Z,90.34
2022-11-29T11:18:29.892Z,90.27
2022-11-29T11:20:55.990Z,90.06
2022-11-29T11:23:22.088Z,89.78
2022-11-29T11:25:48.321Z,89.76
2022-11-29T11:28:14.455Z,89.76
2022-11-29T11:30:40.588Z,89.88
2022-11-29T11:33:06.750Z,89.79
2022-11-29T11:35:32.852Z,89.58
2022-11-29T11:37:58.950Z,89.48
2022-11-29T11:40:25.125Z,89.46
2022-11-29T11:42:51.272Z,89.36
2022-11-29T11:45:17.365Z,89.33
2022-11-29T11:47:43.486Z,89.08
2022-11-29T11:50:09.593Z,88.96
2022-11-29T11:52:39.775Z,88.87
2022-11-29T11:55:07.323Z,88.79
2022-11-29T11:57:33.418Z,88.75
2022-11-29T12:00:05.024Z,88.80
2022-11-29T12:02:33.029Z,88.55
2022-11-29T12:04:59.216Z,88.42
2022-11-29T12:07:45.002Z,88.37
2022-11-29T12:10:11.442Z,88.23
2022-11-29T12:12:37.538Z,88.25
2022-11-29T12:15:03.633Z,88.21
2022-11-29T12:17:29.736Z,88.13
2022-11-29T12:19:55.863Z,88.12
2022-11-29T12:22:22.018Z,88.04
2022-11-29T12:24:48.348Z,87.88
2022-11-29T12:27:14.618Z,88.00
2022-11-29T12:29:40.737Z,87.87
2022-11-29T12:32:06.864Z,88.02
2022-11-29T12:34:32.951Z,87.95
2022-11-29T12:36:59.054Z,87.86
2022-11-29T12:39:25.723Z,87.98
2022-11-29T12:41:54.185Z,87.93
2022-11-29T12:44:20.524Z,87.80
2022-11-29T12:46:46.703Z,88.03
2022-11-29T12:49:12.834Z,87.75
2022-11-29T12:51:38.930Z,87.60
2022-11-29T12:54:05.044Z,87.97
2022-11-29T12:56:31.142Z,87.83
2022-11-29T12:58:57.242Z,87.82
2022-11-29T13:01:23.475Z,87.58
2022-11-29T13:03:49.663Z,87.85
2022-11-29T13:06:15.770Z,87.79
2022-11-29T13:08:41.934Z,87.63
2022-11-29T13:11:08.050Z,87.67
2022-11-29T13:13:34.211Z,88.02
2022-11-29T13:16:00.483Z,87.87
2022-11-29T13:18:26.659Z,88.11
2022-11-29T13:20:52.758Z,88.17
2022-11-29T13:23:20.744Z,88.03
2022-11-29T13:25:46.957Z,87.96
2022-11-29T13:28:13.048Z,88.10
2022-11-29T13:30:39.163Z,87.95
2022-11-29T13:33:05.273Z,88.19
2022-11-29T13:35:31.374Z,88.13
2022-11-29T13:37:57.496Z,88.23
2022-11-29T13:40:23.605Z,88.17
2022-11-29T13:42:49.707Z,88.18
2022-11-29T13:45:16.263Z,88.01
2022-11-29T13:47:42.365Z,87.98
2022-11-29T13:50:08.460Z,87.96
2022-11-29T13:52:34.559Z,87.85
2022-11-29T13:55:00.665Z,88.27
2022-11-29T13:57:26.767Z,87.95
2022-11-29T13:59:52.885Z,88.12
2022-11-29T14:02:18.993Z,87.91
2022-11-29T14:04:45.419Z,87.80
2022-11-29T14:07:11.719Z,88.13
2022-11-29T14:09:37.807Z,87.99
2022-11-29T14:12:03.912Z,88.06
2022-11-29T14:14:30.524Z,88.16
2022-11-29T14:16:56.619Z,88.15
2022-11-29T14:19:22.707Z,88.06
2022-11-29T14:21:48.864Z,88.07
2022-11-29T14:24:15.633Z,87.94
2022-11-29T14:26:41.738Z,88.19
2022-11-29T14:29:07.863Z,88.04
2022-11-29T14:31:34.052Z,88.12
2022-11-29T14:34:00.176Z,88.06
2022-11-29T14:36:26.288Z,87.94
2022-11-29T14:38:52.380Z,88.13
2022-11-29T14:41:18.484Z,88.00
2022-11-29T14:43:44.625Z,88.16
2022-11-29T14:46:10.754Z,88.24
2022-11-29T14:48:36.887Z,88.14
2022-11-29T14:51:03.005Z,88.41
2022-11-29T14:53:29.163Z,88.28
2022-11-29T14:55:55.256Z,88.59
2022-11-29T14:58:21.376Z,88.62
2022-11-29T15:00:47.484Z,88.54
2022-11-29T15:03:13.622Z,88.66
2022-11-29T15:05:39.745Z,88.57
2022-11-29T15:08:05.850Z,88.70
2022-11-29T15:10:31.941Z,88.93
2022-11-29T15:12:58.105Z,88.68
2022-11-29T15:15:24.214Z,89.04
2022-11-29T15:17:50.311Z,88.75
2022-11-29T15:20:16.419Z,88.81
2022-11-29T15:22:42.516Z,89.02
2022-11-29T15:25:08.620Z,88.95
2022-11-29T15:27:39.884Z,88.93
2022-11-29T15:30:06.327Z,89.27
2022-11-29T15:32:32.425Z,88.96
2022-11-29T15:34:58.531Z,89.32
2022-11-29T15:37:24.627Z,89.17
2022-11-29T15:39:50.721Z,89.24
2022-11-29T15:42:16.834Z,89.30
2022-11-29T15:44:43.050Z,89.30
2022-11-29T15:47:09.213Z,89.42
2022-11-29T15:49:35.329Z,89.68
2022-11-29T15:52:01.432Z,89.52
2022-11-29T15:54:27.519Z,89.70
2022-11-29T15:56:53.629Z,89.49
2022-11-29T15:59:19.725Z,89.78
2022-11-29T16:01:45.867Z,89.61
2022-11-29T16:04:12.012Z,89.50
2022-11-29T16:06:38.107Z,89.74
2022-11-29T16:09:04.221Z,89.50
2022-11-29T16:11:30.326Z,89.97
2022-11-29T16:13:56.439Z,89.83
2022-11-29T16:16:22.650Z,89.76
2022-11-29T16:18:49.155Z,89.78
2022-11-29T16:21:15.261Z,89.71
2022-11-29T16:23:41.354Z,89.80
2022-11-29T16:26:07.461Z,89.63
2022-11-29T16:28:33.550Z,89.62
2022-11-29T16:30:59.656Z,90.04
2022-11-29T16:33:25.763Z,89.85
2022-11-29T16:35:52.132Z,89.72
2022-11-29T16:38:18.253Z,90.17
2022-11-29T16:40:44.365Z,89.81
2022-11-29T16:43:10.469Z,89.71
2022-11-29T16:45:36.588Z,89.60
2022-11-29T16:48:02.792Z,89.90
2022-11-29T16:50:28.935Z,89.67
2022-11-29T16:52:56.867Z,89.75
2022-11-29T16:55:23.187Z,89.56
2022-11-29T16:57:49.281Z,89.61
2022-11-29T17:00:15.392Z,89.71
2022-11-29T17:02:41.529Z,89.79
2022-11-29T17:05:07.649Z,89.56
2022-11-29T17:07:33.766Z,89.68
2022-11-29T17:09:59.900Z,89.48
2022-11-29T17:12:25.994Z,89.52
2022-11-29T17:14:52.088Z,89.85
2022-11-29T17:17:18.202Z,89.95
2022-11-29T17:19:44.306Z,89.67
2022-11-29T17:22:10.399Z,89.77
2022-11-29T17:24:36.804Z,89.80
2022-11-29T17:27:02.899Z,89.61
2022-11-29T17:29:29.009Z,89.71
2022-11-29T17:31:55.192Z,89.65
2022-11-29T17:34:21.328Z,89.77
2022-11-29T17:36:47.472Z,89.62
2022-11-29T17:39:13.585Z,89.81
2022-11-29T17:41:39.678Z,89.67
2022-11-29T17:44:05.772Z,89.89
2022-11-29T17:46:31.889Z,89.66
2022-11-29T17:48:57.988Z,89.88
2022-11-29T17:54:10.709Z,89.80
2022-11-29T17:56:36.805Z,89.74
2022-11-29T17:59:02.896Z,89.78
2022-11-29T18:01:29.097Z,89.81
2022-11-29T18:03:55.252Z,89.96
2022-11-29T18:06:21.348Z,89.75
2022-11-29T18:08:47.465Z,89.88
2022-11-29T18:11:13.561Z,89.84
2022-11-29T18:13:39.662Z,90.20
2022-11-29T18:16:05.768Z,90.10
2022-11-29T18:18:31.875Z,90.09
2022-11-29T18:20:57.967Z,89.90
2022-11-29T18:23:24.081Z,90.05
2022-11-29T18:25:50.178Z,90.08
2022-11-29T18:28:16.293Z,90.18
2022-11-29T18:30:42.475Z,90.50
2022-11-29T18:33:08.596Z,90.41
2022-11-29T18:35:34.696Z,90.53
2022-11-29T18:38:16.659Z,90.56
2022-11-29T18:40:42.973Z,90.55
2022-11-29T18:43:09.081Z,90.52
2022-11-29T18:45:35.179Z,90.77
2022-11-29T18:48:01.274Z,90.99
2022-11-29T18:50:27.378Z,90.89
2022-11-29T18:52:53.467Z,90.63
2022-11-29T18:55:19.555Z,90.86
2022-11-29T18:57:46.447Z,90.91
2022-11-29T19:00:12.545Z,91.10
2022-11-29T19:02:38.664Z,91.12
2022-11-29T19:05:04.796Z,91.18
2022-11-29T19:07:30.926Z,91.37
2022-11-29T19:09:57.039Z,91.14
2022-11-29T19:12:23.159Z,90.93
2022-11-29T19:14:50.186Z,91.12
2022-11-29T19:17:16.448Z,91.10
2022-11-29T19:19:42.620Z,90.85
2022-11-29T19:22:08.826Z,90.80
2022-11-29T19:24:34.921Z,90.74
2022-11-29T19:27:01.088Z,90.87
2022-11-29T19:29:27.185Z,90.93
2022-11-29T19:31:53.286Z,90.61
2022-11-29T19:34:19.680Z,90.93
2022-11-29T19:36:45.767Z,91.20
2022-11-29T19:39:11.871Z,90.92
2022-11-29T19:41:37.996Z,91.06
2022-11-29T19:44:04.106Z,90.87
2022-11-29T19:46:30.234Z,90.75
2022-11-29T19:48:56.384Z,90.98
2022-11-29T19:51:22.485Z,90.98
2022-11-29T19:53:48.594Z,91.12
2022-11-29T19:56:14.696Z,91.04
2022-11-29T19:58:40.794Z,90.75
2022-11-29T20:01:06.892Z,91.03
2022-11-29T20:03:33.009Z,90.92
2022-11-29T20:05:59.106Z,91.00
2022-11-29T20:08:25.212Z,90.88
2022-11-29T20:10:51.318Z,91.06
2022-11-29T20:13:17.405Z,90.79
2022-11-29T20:15:43.539Z,90.78
2022-11-29T20:18:09.691Z,90.92
2022-11-29T20:20:35.798Z,90.90
2022-11-29T20:23:01.899Z,91.25
2022-11-29T20:25:28.027Z,90.89
2022-11-29T20:27:54.124Z,91.07
2022-11-29T20:30:20.229Z,91.40
2022-11-29T20:32:48.465Z,91.14
2022-11-29T20:35:14.569Z,91.03
2022-11-29T20:37:40.665Z,91.21
2022-11-29T20:40:06.780Z,91.22
2022-11-29T20:42:32.879Z,91.06
2022-11-29T20:44:58.973Z,91.09
2022-11-29T20:47:25.191Z,91.18
2022-11-29T20:49:51.306Z,91.23
2022-11-29T20:52:17.396Z,91.17
2022-11-29T20:54:43.506Z,91.41
2022-11-29T20:57:09.604Z,91.28
2022-11-29T20:59:35.696Z,91.00
2022-11-29T21:02:01.876Z,91.27
2022-11-29T21:04:28.034Z,91.11
2022-11-29T21:06:54.134Z,91.40
2022-11-29T21:09:20.237Z,91.19
2022-11-29T21:11:46.350Z,91.18
2022-11-29T21:14:12.446Z,91.22
2022-11-29T21:16:38.568Z,91.41
2022-11-29T21:19:04.659Z,91.45
2022-11-29T21:21:30.750Z,91.73
2022-11-29T21:23:56.873Z,91.40
2022-11-29T21:26:22.979Z,91.42
2022-11-29T21:28:49.086Z,91.71
2022-11-29T21:31:15.238Z,91.62
2022-11-29T21:33:41.399Z,91.53
2022-11-29T21:36:07.492Z,91.75
2022-11-29T21:38:34.102Z,91.81
2022-11-29T21:41:00.197Z,91.71
2022-11-29T21:43:57.931Z,92.25
2022-11-29T21:46:12.490Z,92.03
2022-11-29T21:48:38.619Z,92.02
2022-11-29T21:51:04.710Z,92.04
2022-11-29T21:53:30.847Z,92.23
2022-11-29T21:55:56.950Z,92.39
2022-11-29T21:58:23.035Z,92.50
2022-11-29T22:00:49.144Z,92.66
2022-11-29T22:03:15.244Z,92.54
2022-11-29T22:05:41.327Z,92.56
2022-11-29T22:08:07.454Z,92.43
2022-11-29T22:10:33.548Z,92.70
2022-11-29T22:12:59.648Z,92.79
2022-11-29T22:15:25.746Z,92.63
2022-11-29T22:17:51.834Z,92.70
2022-11-29T22:20:17.924Z,93.21
2022-11-29T22:22:44.082Z,93.05
2022-11-29T22:25:10.177Z,92.99
2022-11-29T22:27:36.274Z,93.41
2022-11-29T22:30:02.415Z,93.13
2022-11-29T22:32:28.511Z,93.01
2022-11-29T22:34:54.622Z,93.23
2022-11-29T22:37:20.754Z,93.20
2022-11-29T22:39:46.859Z,93.49
2022-11-29T22:42:12.955Z,93.52
2022-11-29T22:44:39.103Z,93.47
2022-11-29T22:47:05.213Z,93.27
2022-11-29T22:49:31.310Z,93.53
2022-11-29T22:51:57.424Z,93.33
2022-11-29T22:54:23.554Z,93.72
2022-11-29T22:56:49.652Z,93.74
2022-11-29T22:59:15.769Z,93.72
2022-11-29T23:01:42.008Z,93.99
2022-11-29T23:04:08.200Z,93.83
2022-11-29T23:06:34.855Z,93.95
2022-11-29T23:09:01.044Z,93.99
2022-11-29T23:11:27.142Z,93.73
2022-11-29T23:13:53.257Z,93.80
2022-11-29T23:16:19.371Z,93.95
2022-11-29T23:18:45.491Z,94.02
2022-11-29T23:21:11.600Z,93.96
2022-11-29T23:23:37.697Z,94.01
2022-11-29T23:26:03.782Z,94.10
2022-11-29T23:28:29.903Z,93.92
2022-11-29T23:30:56.004Z,94.11
2022-11-29T23:33:22.092Z,94.08
2022-11-29T23:35:48.223Z,94.20
2022-11-29T23:38:14.303Z,94.13
2022-11-29T23:40:40.424Z,94.17
2022-11-29T23:43:06.541Z,94.18
2022-11-29T23:45:32.704Z,94.15
2022-11-29T23:47:58.840Z,94.14
2022-11-29T23:50:24.936Z,93.98
2022-11-29T23:52:51.028Z,94.34
2022-11-29T23:55:17.273Z,94.06
2022-11-29T23:57:43.380Z,93.89
